Time;durP1;ratioP1;P1;durP2;ratioP2;P2;SDS_P1;SDS_P2;PMS_P1;PMS_P2;Temp;Humidity;BMP_temperature;BMP_pressure;BME280_temperature;BME280_humidity;BME280_pressure;Samples;Min_cycle;Max_cycle;Signal;HPM_P1;HPM_P2
2021/10/06 00:00:53;;;;;;;13.52;9.30;;;384.00;2329.60;;;;;;4996014;28;20405;-87
2021/10/06 00:03:25;;;;;;;16.20;9.10;;;384.00;2329.60;;;;;;4995861;28;20111;-87
2021/10/06 00:05:52;;;;;;;13.30;8.87;;;384.00;2329.60;;;;;;5003774;28;20076;-87
2021/10/06 00:08:31;;;;;;;12.95;9.05;;;359.10;2329.60;;;;;;5013990;28;20256;-86
2021/10/06 00:11:47;;;;;;;13.70;10.10;;;359.30;2329.60;;;;;;5014654;28;20054;-85
2021/10/06 00:14:22;;;;;;;11.82;9.90;;;359.00;2329.60;;;;;;4996481;28;20547;-89
2021/10/06 00:16:51;;;;;;;15.50;10.60;;;359.10;2329.60;;;;;;4979861;28;20031;-87
2021/10/06 00:19:31;;;;;;;17.90;11.88;;;359.00;2329.60;;;;;;4996403;28;20031;-88
2021/10/06 00:22:00;;;;;;;17.67;10.10;;;358.80;2329.60;;;;;;4996141;28;20033;-88
2021/10/06 00:24:26;;;;;;;19.85;13.73;;;358.90;2329.60;;;;;;4996184;28;20026;-88
2021/10/06 00:26:52;;;;;;;15.50;11.52;;;358.80;2329.60;;;;;;4996137;28;20022;-89
2021/10/06 00:29:18;;;;;;;21.73;12.43;;;358.90;2329.60;;;;;;4995978;28;20496;-88
2021/10/06 00:31:44;;;;;;;18.15;11.73;;;359.00;2329.60;;;;;;4995656;28;20073;-87
2021/10/06 00:34:10;;;;;;;16.88;11.15;;;359.00;2329.60;;;;;;4995819;28;20117;-87
2021/10/06 00:36:36;;;;;;;20.67;13.07;;;359.00;2329.60;;;;;;4995665;28;20180;-88
2021/10/06 00:39:03;;;;;;;17.65;11.05;;;359.00;2329.60;;;;;;4995982;28;20033;-87
2021/10/06 00:41:29;;;;;;;16.55;10.73;;;359.10;2329.60;;;;;;4979332;28;20080;-88
2021/10/06 00:43:56;;;;;;;15.95;9.18;;;359.00;2329.60;;;;;;4995660;28;20026;-88
2021/10/06 00:46:25;;;;;;;12.30;9.27;;;359.00;2329.60;;;;;;4995629;28;20026;-87
2021/10/06 00:49:00;;;;;;;11.68;9.05;;;359.00;2329.60;;;;;;4995331;28;20093;-87
2021/10/06 00:51:31;;;;;;;13.98;9.45;;;359.00;2329.60;;;;;;4995586;28;20046;-86
2021/10/06 00:54:03;;;;;;;11.50;8.32;;;358.80;2329.60;;;;;;4995993;28;20482;-88
2021/10/06 00:56:38;;;;;;;10.65;7.78;;;358.90;2329.60;;;;;;4978754;28;20033;-86
2021/10/06 00:59:10;;;;;;;15.38;9.65;;;359.00;2329.60;;;;;;4995284;28;20475;-86
2021/10/06 01:01:37;;;;;;;10.13;7.95;;;358.80;2329.60;;;;;;4994649;28;20122;-87
2021/10/06 01:04:04;;;;;;;13.05;9.10;;;358.90;2329.60;;;;;;4978431;28;20027;-86
2021/10/06 01:06:34;;;;;;;11.50;9.55;;;358.90;2329.60;;;;;;4995102;28;20037;-88
2021/10/06 01:09:01;;;;;;;15.00;10.40;;;359.00;2329.60;;;;;;4995130;28;20058;-88
2021/10/06 01:11:28;;;;;;;11.25;9.35;;;359.00;2329.60;;;;;;4994718;28;20501;-87
2021/10/06 01:13:54;;;;;;;12.27;10.00;;;359.00;2329.60;;;;;;4995141;28;20077;-87
2021/10/06 01:16:23;;;;;;;13.55;8.55;;;359.00;2329.60;;;;;;4995263;28;20493;-89
2021/10/06 01:18:49;;;;;;;12.00;8.73;;;359.00;2329.60;;;;;;4979346;28;20486;-88
2021/10/06 01:21:19;;;;;;;11.57;9.45;;;359.00;2329.60;;;;;;4995359;28;20037;-87
2021/10/06 01:23:47;;;;;;;11.10;7.68;;;359.00;2329.60;;;;;;4994934;28;20482;-87
2021/10/06 01:26:18;;;;;;;11.60;8.13;;;358.90;2329.60;;;;;;4978832;28;20475;-86
2021/10/06 01:28:49;;;;;;;10.73;6.85;;;384.10;2329.60;;;;;;4994739;28;20029;-86
2021/10/06 01:31:28;;;;;;;9.95;7.13;;;358.90;2329.60;;;;;;4978272;28;20359;-89
2021/10/06 01:33:54;;;;;;;9.80;6.90;;;358.80;2329.60;;;;;;5011409;28;20026;-87
2021/10/06 01:36:20;;;;;;;10.73;6.70;;;358.90;2329.60;;;;;;5011263;28;20030;-87
2021/10/06 01:38:46;;;;;;;13.82;7.20;;;359.00;2329.60;;;;;;4994540;28;20042;-88
2021/10/06 01:41:12;;;;;;;12.88;8.50;;;359.00;2329.60;;;;;;4994664;28;20129;-86
2021/10/06 01:43:39;;;;;;;10.57;8.68;;;359.00;2329.60;;;;;;4994576;28;20487;-87
2021/10/06 01:46:05;;;;;;;12.63;8.52;;;358.90;2329.60;;;;;;5010657;28;20030;-87
2021/10/06 01:48:32;;;;;;;17.02;10.48;;;358.80;2329.60;;;;;;4995857;28;20069;-87
2021/10/06 01:50:58;;;;;;;11.70;8.80;;;358.80;2329.60;;;;;;4994572;28;20026;-87
2021/10/06 01:53:39;;;;;;;14.05;9.98;;;358.70;2329.60;;;;;;4994460;28;20434;-88
2021/10/06 01:56:05;;;;;;;15.98;9.85;;;358.60;2329.60;;;;;;4994638;28;20050;-88
2021/10/06 01:58:31;;;;;;;10.80;8.90;;;358.60;2329.60;;;;;;4978006;28;20097;-87
2021/10/06 02:00:58;;;;;;;13.07;9.63;;;358.60;2329.60;;;;;;4994065;28;20052;-87
2021/10/06 02:03:24;;;;;;;16.10;10.57;;;358.50;2329.60;;;;;;4994218;28;20030;-88
2021/10/06 02:05:50;;;;;;;16.65;10.18;;;358.50;2329.60;;;;;;4994184;28;20374;-87
2021/10/06 02:08:17;;;;;;;13.68;9.55;;;358.50;2329.60;;;;;;4994497;28;20038;-87
2021/10/06 02:10:44;;;;;;;12.98;9.20;;;358.50;2329.60;;;;;;4994213;28;20072;-88
2021/10/06 02:13:11;;;;;;;15.27;9.65;;;358.40;2329.60;;;;;;4994352;28;20030;-88
2021/10/06 02:15:37;;;;;;;16.52;9.90;;;358.50;2329.60;;;;;;4993477;28;20516;-88
2021/10/06 02:18:03;;;;;;;17.55;12.63;;;333.00;2329.60;;;;;;4961916;28;20031;-89
2021/10/06 02:20:30;;;;;;;23.70;14.07;;;358.50;2329.60;;;;;;4993789;28;20062;-87
2021/10/06 02:22:56;;;;;;;17.83;12.32;;;333.70;2329.60;;;;;;4977787;28;20029;-89
2021/10/06 02:25:25;;;;;;;22.02;13.40;;;358.40;2329.60;;;;;;4994307;28;20022;-88
2021/10/06 02:28:14;;;;;;;19.85;12.30;;;358.40;2329.60;;;;;;4994062;28;20470;-88
2021/10/06 02:30:44;;;;;;;23.98;12.43;;;333.60;2329.60;;;;;;4993816;28;20022;-87
2021/10/06 02:33:10;;;;;;;17.08;11.50;;;358.70;2329.60;;;;;;4993949;28;20120;-87
2021/10/06 02:35:40;;;;;;;18.63;11.07;;;333.70;2329.60;;;;;;4993791;28;20030;-89
2021/10/06 02:38:06;;;;;;;16.25;9.20;;;333.70;2329.60;;;;;;4993806;28;20553;-89
2021/10/06 02:40:33;;;;;;;13.77;9.48;;;358.40;2329.60;;;;;;4993399;28;20034;-88
2021/10/06 02:42:59;;;;;;;13.15;8.38;;;358.60;2329.60;;;;;;4994177;28;20022;-88
2021/10/06 02:45:25;;;;;;;13.63;8.52;;;358.40;2329.60;;;;;;4994250;28;20085;-87
2021/10/06 02:47:54;;;;;;;11.70;7.60;;;358.40;2329.60;;;;;;4993693;28;20033;-88
2021/10/06 02:50:26;;;;;;;8.93;6.90;;;333.70;2329.60;;;;;;4993803;28;20034;-87
2021/10/06 02:52:56;;;;;;;10.13;7.20;;;358.40;2329.60;;;;;;4994083;28;20553;-88
2021/10/06 02:55:22;;;;;;;9.52;7.38;;;358.40;2329.60;;;;;;4977398;28;20061;-87
2021/10/06 02:57:48;;;;;;;9.02;7.10;;;358.40;2329.60;;;;;;4993441;28;20081;-88
2021/10/06 03:00:20;;;;;;;12.98;6.50;;;333.70;2329.60;;;;;;4993467;28;20038;-88
2021/10/06 03:02:46;;;;;;;11.35;6.80;;;333.70;2329.60;;;;;;4990033;28;20034;-87
2021/10/06 03:05:14;;;;;;;11.85;6.32;;;358.50;2329.60;;;;;;4990497;28;20030;-88
2021/10/06 03:07:40;;;;;;;9.07;6.72;;;358.50;2329.60;;;;;;4990290;28;20037;-88
2021/10/06 03:10:14;;;;;;;8.60;6.50;;;358.80;2329.60;;;;;;4990026;28;20030;-88
2021/10/06 03:12:43;;;;;;;9.82;6.32;;;358.50;2329.60;;;;;;5006670;28;20022;-88
2021/10/06 03:15:17;;;;;;;12.05;7.60;;;358.50;2329.60;;;;;;4989896;28;20463;-87
2021/10/06 03:17:43;;;;;;;17.77;11.07;;;358.50;2329.60;;;;;;4990486;28;20042;-86
2021/10/06 03:20:14;;;;;;;18.83;12.25;;;358.50;2329.60;;;;;;4990329;28;20031;-87
2021/10/06 03:22:41;;;;;;;19.30;13.57;;;358.40;2329.60;;;;;;4973927;28;20364;-87
2021/10/06 03:25:13;;;;;;;16.90;12.40;;;333.50;2329.60;;;;;;4990399;28;20490;-89
2021/10/06 03:27:44;;;;;;;22.23;14.43;;;333.50;2329.60;;;;;;4993530;28;20483;-87
2021/10/06 03:30:10;;;;;;;23.60;14.95;;;333.50;2329.60;;;;;;5009355;28;20323;-88
2021/10/06 03:32:37;;;;;;;20.23;14.30;;;333.40;2329.60;;;;;;4993691;28;20062;-88
2021/10/06 03:35:05;;;;;;;25.85;15.25;;;333.20;2329.60;;;;;;4993718;28;20033;-87
2021/10/06 03:37:31;;;;;;;24.58;14.80;;;333.30;2329.60;;;;;;4993505;28;20105;-88
2021/10/06 03:40:03;;;;;;;22.20;15.98;;;333.40;2329.60;;;;;;4993887;28;20117;-87
2021/10/06 03:42:29;;;;;;;19.63;14.30;;;333.50;2329.60;;;;;;4994095;28;20077;-87
2021/10/06 03:44:57;;;;;;;21.88;14.70;;;333.30;2329.60;;;;;;4993509;28;20027;-87
2021/10/06 03:47:23;;;;;;;22.73;16.33;;;333.40;2329.60;;;;;;4993430;28;20379;-88
2021/10/06 03:49:49;;;;;;;21.92;16.08;;;333.40;2329.60;;;;;;5009535;28;20446;-88
2021/10/06 03:52:16;;;;;;;23.23;15.40;;;333.60;2329.60;;;;;;4993527;28;20062;-89
2021/10/06 03:54:44;;;;;;;20.23;13.82;;;358.90;2329.60;;;;;;4993346;28;20054;-87
2021/10/06 03:57:10;;;;;;;19.00;13.80;;;333.60;2329.60;;;;;;4993095;28;20026;-88
2021/10/06 03:59:36;;;;;;;22.98;13.27;;;358.40;2329.60;;;;;;4993255;28;20037;-87
2021/10/06 04:02:02;;;;;;;15.48;11.50;;;333.70;2329.60;;;;;;4996314;28;20104;-89
2021/10/06 04:04:29;;;;;;;13.88;11.00;;;333.60;2329.60;;;;;;4980073;28;20037;-87
2021/10/06 04:06:55;;;;;;;16.13;10.20;;;333.70;2329.60;;;;;;4996481;28;20037;-88
2021/10/06 04:09:21;;;;;;;15.90;11.38;;;333.40;2329.60;;;;;;4996812;28;20478;-88
2021/10/06 04:11:47;;;;;;;17.40;12.25;;;333.40;2329.60;;;;;;4996479;28;20023;-87
2021/10/06 04:14:13;;;;;;;18.88;12.18;;;333.20;2329.60;;;;;;4996204;28;20549;-87
2021/10/06 04:16:39;;;;;;;20.38;12.05;;;333.20;2329.60;;;;;;4996154;28;20030;-87
2021/10/06 04:19:10;;;;;;;15.35;11.07;;;333.10;2329.60;;;;;;4981222;28;20048;-87
2021/10/06 04:21:38;;;;;;;14.18;10.27;;;333.10;2329.60;;;;;;4997827;28;20040;-88
2021/10/06 04:24:05;;;;;;;17.95;13.70;;;333.00;2329.60;;;;;;4997950;28;20084;-88
2021/10/06 04:26:31;;;;;;;23.45;13.32;;;307.60;2304.00;;;;;;4997392;28;20022;-87
2021/10/06 04:28:57;;;;;;;18.33;13.68;;;307.60;2304.00;;;;;;4963825;28;20057;-88
2021/10/06 04:31:23;;;;;;;19.08;12.77;;;333.40;2329.60;;;;;;4996280;28;20076;-87
2021/10/06 04:33:50;;;;;;;18.33;11.40;;;333.40;2329.60;;;;;;4995807;28;20049;-88
2021/10/06 04:36:16;;;;;;;16.27;10.27;;;333.40;2329.60;;;;;;4995976;28;20038;-88
2021/10/06 04:38:54;;;;;;;21.10;10.55;;;333.50;2329.60;;;;;;4995265;28;20034;-87
2021/10/06 04:41:23;;;;;;;15.52;9.48;;;333.60;2329.60;;;;;;5011968;28;20038;-88
2021/10/06 04:43:49;;;;;;;12.52;9.15;;;333.70;2329.60;;;;;;4995773;28;20053;-86
2021/10/06 04:46:16;;;;;;;11.68;8.57;;;358.40;2329.60;;;;;;4979299;28;20018;-88
2021/10/06 04:48:43;;;;;;;13.60;8.80;;;358.40;2329.60;;;;;;4979243;28;20080;-88
2021/10/06 04:51:12;;;;;;;12.95;7.78;;;358.50;2329.60;;;;;;4995608;28;20161;-87
2021/10/06 04:53:38;;;;;;;13.90;8.70;;;358.50;2329.60;;;;;;5016235;28;20406;-88
2021/10/06 04:56:05;;;;;;;17.38;11.27;;;358.50;2329.60;;;;;;5014601;28;20034;-89
2021/10/06 04:58:31;;;;;;;17.02;11.85;;;333.70;2329.60;;;;;;4995745;28;20030;-86
2021/10/06 05:00:57;;;;;;;15.85;9.93;;;358.40;2329.60;;;;;;4995178;28;20058;-88
2021/10/06 05:03:23;;;;;;;16.35;8.73;;;358.40;2329.60;;;;;;4996109;28;20034;-85
2021/10/06 05:05:49;;;;;;;13.02;9.45;;;358.40;2329.60;;;;;;4995476;28;20037;-87
2021/10/06 05:08:15;;;;;;;15.50;10.23;;;358.50;2329.60;;;;;;4995556;28;20022;-87
2021/10/06 05:10:41;;;;;;;17.73;10.80;;;358.60;2329.60;;;;;;4995432;28;20117;-89
2021/10/06 05:13:08;;;;;;;16.70;10.35;;;358.60;2329.60;;;;;;4995242;28;20076;-88
2021/10/06 05:15:34;;;;;;;18.60;13.43;;;358.80;2329.60;;;;;;4978555;28;20030;-87
2021/10/06 05:18:00;;;;;;;18.95;12.57;;;358.70;2329.60;;;;;;4995048;28;20058;-87
2021/10/06 05:20:26;;;;;;;26.45;12.20;;;358.80;2329.60;;;;;;4995013;28;20026;-88
2021/10/06 05:22:52;;;;;;;27.42;18.25;;;358.80;2329.60;;;;;;4995102;28;20049;-87
2021/10/06 05:25:20;;;;;;;15.35;10.23;;;358.70;2329.60;;;;;;4997826;28;20121;-87
2021/10/06 05:27:47;;;;;;;14.85;9.32;;;358.80;2329.60;;;;;;4997266;28;20108;-86
2021/10/06 05:30:14;;;;;;;19.00;9.90;;;358.80;2329.60;;;;;;4995908;28;20027;-87
2021/10/06 05:32:46;;;;;;;26.42;20.33;;;358.90;2329.60;;;;;;5001148;28;20026;-87
2021/10/06 05:35:12;;;;;;;24.80;15.50;;;359.00;2329.60;;;;;;5001519;28;20094;-87
2021/10/06 05:37:39;;;;;;;20.55;11.65;;;358.80;2329.60;;;;;;4999278;28;20466;-88
2021/10/06 05:40:06;;;;;;;21.23;10.82;;;358.80;2329.60;;;;;;4994625;28;20026;-88
2021/10/06 05:42:32;;;;;;;17.48;11.63;;;358.80;2329.60;;;;;;4994766;28;20390;-87
2021/10/06 05:44:58;;;;;;;62.00;26.08;;;359.00;2329.60;;;;;;4978979;28;20125;-87
2021/10/06 05:47:24;;;;;;;35.25;16.13;;;384.10;2329.60;;;;;;4996879;28;20026;-87
2021/10/06 05:49:51;;;;;;;23.73;12.85;;;359.20;2329.60;;;;;;4995287;28;20130;-88
2021/10/06 05:52:17;;;;;;;26.65;15.02;;;359.30;2329.60;;;;;;4996987;28;20023;-87
2021/10/06 05:54:44;;;;;;;29.50;17.48;;;384.60;2329.60;;;;;;4996403;28;20113;-87
2021/10/06 05:57:10;;;;;;;26.58;16.98;;;384.00;2329.60;;;;;;4962767;28;20041;-87
2021/10/06 05:59:36;;;;;;;26.60;17.17;;;384.00;2329.60;;;;;;4996218;28;20389;-88
2021/10/06 06:02:02;;;;;;;30.58;18.58;;;384.10;2329.60;;;;;;4995301;28;20046;-86
2021/10/06 06:04:28;;;;;;;29.60;18.15;;;384.20;2329.60;;;;;;4996502;28;20041;-87
2021/10/06 06:06:57;;;;;;;38.10;20.00;;;384.10;2329.60;;;;;;4995524;28;20038;-86
2021/10/06 06:09:29;;;;;;;24.45;16.92;;;384.00;2329.60;;;;;;4996550;28;20034;-87
2021/10/06 06:11:55;;;;;;;35.15;23.27;;;384.00;2329.60;;;;;;4996103;28;20548;-87
2021/10/06 06:14:21;;;;;;;30.00;20.77;;;359.20;2329.60;;;;;;4995483;28;20425;-89
2021/10/06 06:16:47;;;;;;;28.77;18.88;;;359.20;2329.60;;;;;;4994311;28;20508;-87
2021/10/06 06:19:13;;;;;;;20.77;15.43;;;384.00;2329.60;;;;;;4995358;28;20125;-87
2021/10/06 06:21:40;;;;;;;20.30;16.30;;;384.00;2329.60;;;;;;4995081;28;20073;-89
2021/10/06 06:24:06;;;;;;;25.98;18.52;;;384.10;2329.60;;;;;;4995280;28;20133;-88
2021/10/06 06:26:32;;;;;;;29.02;16.77;;;384.10;2329.60;;;;;;5015500;28;20026;-86
2021/10/06 06:28:58;;;;;;;22.27;13.48;;;384.20;2329.60;;;;;;5018281;28;20030;-87
2021/10/06 06:31:24;;;;;;;21.70;11.63;;;384.30;2329.60;;;;;;5018159;28;20034;-87
2021/10/06 06:33:50;;;;;;;23.02;12.32;;;384.30;2329.60;;;;;;5018344;28;20053;-87
2021/10/06 06:36:16;;;;;;;17.77;11.45;;;384.40;2329.60;;;;;;5017832;28;20041;-87
2021/10/06 06:38:42;;;;;;;25.75;11.90;;;384.40;2329.60;;;;;;5017479;28;20030;-87
2021/10/06 06:41:08;;;;;;;29.02;14.68;;;384.50;2329.60;;;;;;5017123;28;20073;-84
2021/10/06 06:43:34;;;;;;;35.30;19.30;;;384.60;2329.60;;;;;;5013434;28;20026;-85
2021/10/06 06:46:00;;;;;;;44.78;22.52;;;384.60;2329.60;;;;;;5015845;28;20030;-83
2021/10/06 06:48:25;;;;;;;27.50;16.65;;;384.70;2329.60;;;;;;5014276;28;20026;-84
2021/10/06 06:50:56;;;;;;;18.17;11.75;;;384.70;2329.60;;;;;;5010860;28;20053;-83
2021/10/06 06:53:27;;;;;;;24.27;13.18;;;384.80;2329.60;;;;;;5006739;28;20046;-85
2021/10/06 06:55:57;;;;;;;22.48;14.93;;;384.80;2329.60;;;;;;4998748;28;20037;-81
2021/10/06 06:58:24;;;;;;;25.27;15.98;;;384.90;2329.60;;;;;;4998277;28;20027;-80
2021/10/06 07:00:51;;;;;;;22.25;14.75;;;384.90;2329.60;;;;;;4995631;28;20078;-82
2021/10/06 07:03:18;;;;;;;22.10;16.70;;;409.60;2355.20;;;;;;4998920;28;20065;-81
2021/10/06 07:05:45;;;;;;;24.55;14.40;;;409.70;2355.20;;;;;;4998292;28;20030;-80
2021/10/06 07:08:11;;;;;;;21.60;13.27;;;409.70;2355.20;;;;;;5013069;28;20037;-81
2021/10/06 07:10:38;;;;;;;19.25;14.05;;;409.70;2355.20;;;;;;4997019;28;20030;-85
2021/10/06 07:13:04;;;;;;;19.75;13.10;;;409.90;2355.20;;;;;;4997184;28;20466;-82
2021/10/06 07:15:30;;;;;;;24.45;12.35;;;409.80;2355.20;;;;;;4996943;28;20026;-85
2021/10/06 07:17:56;;;;;;;15.00;11.50;;;409.80;2355.20;;;;;;4996858;28;20080;-85
2021/10/06 07:20:22;;;;;;;25.95;15.77;;;409.90;2355.20;;;;;;4996382;28;20524;-85
2021/10/06 07:22:49;;;;;;;23.80;14.35;;;409.90;2355.20;;;;;;4996808;28;20062;-84
2021/10/06 07:25:16;;;;;;;27.00;14.95;;;410.00;2355.20;;;;;;5007142;28;20026;-83
2021/10/06 07:27:42;;;;;;;23.80;13.20;;;410.00;2355.20;;;;;;4998326;28;20087;-85
2021/10/06 07:30:09;;;;;;;25.88;13.93;;;410.10;2355.20;;;;;;4998086;28;20101;-84
2021/10/06 07:32:35;;;;;;;22.08;14.00;;;410.10;2355.20;;;;;;4996986;28;20027;-84
2021/10/06 07:35:02;;;;;;;23.33;14.35;;;410.30;2355.20;;;;;;4996571;28;20104;-82
2021/10/06 07:37:28;;;;;;;17.45;11.68;;;410.20;2355.20;;;;;;5004810;28;20034;-83
2021/10/06 07:39:54;;;;;;;19.17;12.23;;;410.20;2355.20;;;;;;4997622;28;20126;-83
2021/10/06 07:42:19;;;;;;;23.73;15.50;;;410.20;2355.20;;;;;;4996021;28;20073;-82
2021/10/06 07:44:46;;;;;;;25.30;15.20;;;410.30;2355.20;;;;;;4996419;28;20072;-81
2021/10/06 07:47:12;;;;;;;19.92;14.10;;;410.30;2355.20;;;;;;4996318;28;20109;-82
2021/10/06 07:49:38;;;;;;;20.55;13.05;;;410.50;2355.20;;;;;;4997446;28;20057;-81
2021/10/06 07:52:05;;;;;;;27.50;16.60;;;410.40;2355.20;;;;;;4996195;28;20030;-81
2021/10/06 07:54:31;;;;;;;15.77;12.82;;;410.50;2355.20;;;;;;4996047;28;20033;-81
2021/10/06 07:56:57;;;;;;;19.23;12.57;;;410.50;2355.20;;;;;;4997277;28;20038;-81
2021/10/06 07:59:22;;;;;;;18.45;12.30;;;410.50;2355.20;;;;;;4996096;28;20031;-82
2021/10/06 08:01:48;;;;;;;18.70;13.40;;;435.20;2355.20;;;;;;5011838;28;20097;-81
2021/10/06 08:04:15;;;;;;;25.42;14.55;;;435.30;2355.20;;;;;;4995732;28;20113;-83
2021/10/06 08:06:41;;;;;;;21.77;14.50;;;435.30;2355.20;;;;;;4997499;28;20041;-81
2021/10/06 08:09:07;;;;;;;22.77;16.10;;;435.40;2355.20;;;;;;5011471;28;20041;-81
2021/10/06 08:11:34;;;;;;;27.10;16.55;;;435.40;2355.20;;;;;;4997309;28;20030;-80
2021/10/06 08:14:00;;;;;;;24.70;17.10;;;435.50;2355.20;;;;;;4995891;28;20050;-81
2021/10/06 08:16:26;;;;;;;26.88;17.00;;;435.50;2355.20;;;;;;4995463;28;20034;-81
2021/10/06 08:18:52;;;;;;;23.10;15.10;;;435.50;2355.20;;;;;;4996908;28;20037;-82
2021/10/06 08:21:18;;;;;;;26.48;14.65;;;435.60;2355.20;;;;;;4995623;28;20071;-82
2021/10/06 08:23:44;;;;;;;24.65;15.43;;;435.60;2355.20;;;;;;5011656;28;20034;-81
2021/10/06 08:26:10;;;;;;;21.55;13.68;;;435.60;2355.20;;;;;;5011784;28;20022;-83
2021/10/06 08:28:35;;;;;;;35.53;20.98;;;435.60;2355.20;;;;;;4995682;28;20475;-83
2021/10/06 08:31:02;;;;;;;35.83;25.00;;;435.60;2355.20;;;;;;4995920;28;20034;-83
2021/10/06 08:33:28;;;;;;;32.08;20.60;;;435.60;2355.20;;;;;;4993532;28;20509;-82
2021/10/06 08:35:53;;;;;;;27.23;16.67;;;435.60;2355.20;;;;;;4995444;28;20030;-83
2021/10/06 08:38:20;;;;;;;25.48;17.42;;;435.60;2355.20;;;;;;4994214;28;20089;-83
2021/10/06 08:40:46;;;;;;;23.65;15.45;;;435.70;2355.20;;;;;;4994626;28;20037;-83
2021/10/06 08:43:12;;;;;;;23.25;15.65;;;435.70;2355.20;;;;;;4996075;28;20474;-83
2021/10/06 08:45:39;;;;;;;29.25;16.02;;;435.70;2355.20;;;;;;4996233;28;20423;-83
2021/10/06 08:48:06;;;;;;;25.98;18.10;;;435.80;2355.20;;;;;;4996600;28;20525;-82
2021/10/06 08:50:33;;;;;;;23.90;15.48;;;435.80;2355.20;;;;;;4995219;28;20030;-83
2021/10/06 08:52:58;;;;;;;26.80;18.55;;;435.90;2355.20;;;;;;4996085;28;20038;-83
2021/10/06 08:55:28;;;;;;;27.67;16.75;;;435.90;2355.20;;;;;;5011463;28;20030;-82
2021/10/06 08:58:04;;;;;;;24.92;16.42;;;436.10;2355.20;;;;;;4995977;28;20033;-83
2021/10/06 09:00:30;;;;;;;29.88;21.75;;;436.10;2355.20;;;;;;4994767;28;20038;-83
2021/10/06 09:03:07;;;;;;;39.78;21.73;;;436.10;2355.20;;;;;;4996222;28;20096;-83
2021/10/06 09:05:32;;;;;;;54.75;33.92;;;460.80;2380.80;;;;;;4996173;28;20049;-84
2021/10/06 09:08:01;;;;;;;50.53;32.17;;;460.90;2380.80;;;;;;4995594;28;20450;-82
2021/10/06 09:10:29;;;;;;;41.17;26.88;;;461.00;2380.80;;;;;;4994913;28;20091;-81
2021/10/06 09:13:04;;;;;;;25.30;19.67;;;461.10;2380.80;;;;;;4994352;28;20496;-80
2021/10/06 09:15:43;;;;;;;24.15;18.73;;;461.10;2380.80;;;;;;4994735;28;20463;-80
2021/10/06 09:18:31;;;;;;;22.85;15.35;;;461.10;2380.80;;;;;;4994825;28;20030;-80
2021/10/06 09:21:09;;;;;;;23.55;12.52;;;461.10;2380.80;;;;;;4994570;28;20129;-80
2021/10/06 09:23:40;;;;;;;18.13;12.88;;;461.10;2380.80;;;;;;4994243;28;20142;-80
2021/10/06 09:26:12;;;;;;;21.90;14.73;;;461.10;2380.80;;;;;;4994042;28;20030;-80
2021/10/06 09:28:46;;;;;;;20.00;16.10;;;460.90;2380.80;;;;;;4995026;28;20105;-80
2021/10/06 09:31:20;;;;;;;22.92;13.82;;;461.10;2380.80;;;;;;4995347;28;20065;-80
2021/10/06 09:33:54;;;;;;;16.02;13.27;;;461.10;2380.80;;;;;;4993735;28;20030;-80
2021/10/06 09:36:32;;;;;;;18.10;13.52;;;461.20;2380.80;;;;;;4993880;28;20033;-81
2021/10/06 09:39:07;;;;;;;21.50;15.73;;;461.20;2380.80;;;;;;4994011;28;20026;-81
2021/10/06 09:41:39;;;;;;;20.17;15.30;;;461.20;2380.80;;;;;;4977389;28;20422;-80
2021/10/06 09:44:04;;;;;;;20.00;15.23;;;461.30;2380.80;;;;;;4994125;28;20063;-81
2021/10/06 09:46:54;;;;;;;17.70;13.65;;;461.30;2380.80;;;;;;4977825;28;20026;-80
2021/10/06 09:49:23;;;;;;;22.92;14.77;;;461.40;2380.80;;;;;;4993738;28;20390;-80
2021/10/06 09:51:50;;;;;;;23.65;14.77;;;461.40;2380.80;;;;;;4994002;28;20030;-80
2021/10/06 09:54:16;;;;;;;20.67;13.93;;;461.40;2380.80;;;;;;4993794;28;20033;-80
2021/10/06 09:56:45;;;;;;;17.17;14.90;;;461.50;2380.80;;;;;;4995341;28;20026;-80
2021/10/06 09:59:13;;;;;;;22.48;15.57;;;461.50;2380.80;;;;;;5010119;28;20471;-80
2021/10/06 10:01:44;;;;;;;23.15;17.48;;;461.50;2380.80;;;;;;4993977;28;20406;-80
2021/10/06 10:04:11;;;;;;;20.20;14.45;;;461.60;2380.80;;;;;;4993565;28;20027;-81
2021/10/06 10:06:38;;;;;;;19.50;14.32;;;461.70;2380.80;;;;;;4993969;28;20033;-80
2021/10/06 10:09:10;;;;;;;21.70;14.18;;;461.70;2380.80;;;;;;4994057;28;20124;-80
2021/10/06 10:11:38;;;;;;;19.87;16.03;;;486.40;2380.80;;;;;;4993933;28;20061;-80
2021/10/06 10:14:06;;;;;;;17.25;14.57;;;486.40;2380.80;;;;;;4993872;28;20113;-80
2021/10/06 10:16:32;;;;;;;21.25;15.20;;;486.40;2380.80;;;;;;4993502;28;20590;-80
2021/10/06 10:19:10;;;;;;;22.73;14.73;;;486.40;2380.80;;;;;;4993521;28;20374;-80
2021/10/06 10:21:42;;;;;;;20.30;15.05;;;486.40;2380.80;;;;;;4993635;28;20545;-79
2021/10/06 10:24:20;;;;;;;24.80;16.33;;;486.40;2380.80;;;;;;4993295;28;20030;-80
2021/10/06 10:27:00;;;;;;;24.58;18.00;;;486.50;2380.80;;;;;;4993520;28;20279;-80
2021/10/06 10:29:44;;;;;;;22.80;18.00;;;486.50;2380.80;;;;;;4993065;28;20053;-80
2021/10/06 10:32:40;;;;;;;26.27;20.25;;;486.50;2380.80;;;;;;4977182;28;20030;-80
2021/10/06 10:35:18;;;;;;;37.55;22.77;;;486.60;2380.80;;;;;;4993202;28;20117;-80
2021/10/06 10:37:49;;;;;;;35.45;19.38;;;486.70;2380.80;;;;;;4992789;28;20180;-80
2021/10/06 10:40:33;;;;;;;28.33;19.02;;;486.70;2380.80;;;;;;4976978;28;20118;-80
2021/10/06 10:43:14;;;;;;;25.92;16.58;;;486.70;2380.80;;;;;;4976985;28;20077;-80
2021/10/06 10:45:59;;;;;;;21.08;15.13;;;486.70;2380.80;;;;;;4976865;28;20121;-80
2021/10/06 10:48:30;;;;;;;18.02;16.00;;;486.70;2380.80;;;;;;4977047;28;20030;-80
2021/10/06 10:50:56;;;;;;;21.60;14.88;;;486.70;2380.80;;;;;;4992764;28;20102;-80
2021/10/06 10:53:51;;;;;;;20.80;13.75;;;486.70;2380.80;;;;;;4977124;28;20130;-81
2021/10/06 10:56:38;;;;;;;25.40;15.65;;;486.70;2380.80;;;;;;4976946;28;20058;-80
2021/10/06 10:59:13;;;;;;;18.58;16.40;;;486.70;2380.80;;;;;;4992785;28;20031;-81
2021/10/06 11:01:49;;;;;;;22.98;15.85;;;486.60;2380.80;;;;;;4992755;28;20406;-80
2021/10/06 11:04:17;;;;;;;17.95;14.57;;;486.60;2380.80;;;;;;4994055;28;20034;-80
2021/10/06 11:06:46;;;;;;;21.35;15.57;;;486.60;2380.80;;;;;;4993194;28;20117;-80
2021/10/06 11:09:30;;;;;;;21.08;15.52;;;486.60;2380.80;;;;;;4992912;28;20085;-80
2021/10/06 11:12:05;;;;;;;23.20;16.30;;;486.60;2380.80;;;;;;4976356;28;20069;-80
2021/10/06 11:14:38;;;;;;;19.15;15.13;;;486.60;2380.80;;;;;;4976706;28;20474;-80
2021/10/06 11:17:10;;;;;;;21.00;15.57;;;486.60;2380.80;;;;;;4992858;28;20030;-80
2021/10/06 11:19:54;;;;;;;23.70;16.45;;;486.60;2380.80;;;;;;4992531;28;20031;-80
2021/10/06 11:22:23;;;;;;;21.05;16.50;;;486.60;2380.80;;;;;;4992660;28;20463;-80
2021/10/06 11:25:00;;;;;;;21.67;15.82;;;486.70;2380.80;;;;;;4994297;28;20463;-80
2021/10/06 11:27:41;;;;;;;23.80;17.42;;;486.70;2380.80;;;;;;5008778;28;20030;-82
2021/10/06 11:30:12;;;;;;;20.85;16.85;;;486.70;2380.80;;;;;;4992641;28;20027;-83
2021/10/06 11:32:55;;;;;;;21.23;17.60;;;486.90;2380.80;;;;;;4992660;28;20038;-83
2021/10/06 11:35:21;;;;;;;22.50;17.65;;;486.70;2380.80;;;;;;4992937;28;20429;-80
2021/10/06 11:37:47;;;;;;;24.88;18.55;;;486.80;2380.80;;;;;;4992708;28;20202;-80
2021/10/06 11:40:17;;;;;;;34.25;18.90;;;486.80;2380.80;;;;;;4992283;28;20129;-82
2021/10/06 11:42:43;;;;;;;23.45;17.10;;;487.00;2380.80;;;;;;4993036;28;20038;-80
2021/10/06 11:45:23;;;;;;;26.15;17.75;;;486.90;2380.80;;;;;;4992946;28;20122;-81
2021/10/06 11:47:49;;;;;;;23.70;18.00;;;487.00;2380.80;;;;;;4994382;28;20039;-81
2021/10/06 11:50:15;;;;;;;40.05;20.63;;;487.00;2380.80;;;;;;4997083;28;20030;-80
2021/10/06 11:52:41;;;;;;;31.25;18.20;;;487.10;2380.80;;;;;;4998088;28;20026;-80
2021/10/06 11:55:07;;;;;;;26.80;18.67;;;487.10;2380.80;;;;;;4996450;28;20434;-79
2021/10/06 11:57:33;;;;;;;43.25;16.75;;;487.10;2380.80;;;;;;4996323;28;20076;-80
2021/10/06 11:59:59;;;;;;;29.15;17.08;;;487.10;2380.80;;;;;;4997487;28;20026;-82
2021/10/06 12:02:24;;;;;;;19.95;14.85;;;487.10;2380.80;;;;;;4995922;28;20104;-85
2021/10/06 12:04:54;;;;;;;31.45;17.30;;;487.10;2380.80;;;;;;4997683;28;20029;-84
2021/10/06 12:07:29;;;;;;;22.15;16.83;;;487.10;2380.80;;;;;;4996279;28;20386;-81
2021/10/06 12:09:58;;;;;;;21.92;14.40;;;487.10;2380.80;;;;;;5012331;28;20117;-81